Terminal Aerodrome Forecast
Issued by NWS

Home | Current Version | Previous Version | Text Only | Print | Product List | Glossary On
Versions: 1 2 3 4 5 6 7 8 9 10 11 12 13 14
000
FTUS42 KTBW 172300
TAFRSW
TAF
KRSW 172326Z 1800/1824 28005KT P6SM SCT250
     FM180200 VRB03KT P6SM SCT250
     FM181000 00000KT 4SM BR SCT250
     FM181500 33007KT P6SM FEW035 SCT250=

USA.gov is the U.S. government's official web portal to all federal, state and local government web resources and services.